createdAt,value
2017-10-21T00:02:17.938Z,100997.59
2017-10-21T00:04:46.310Z,100998.98
2017-10-21T00:07:13.903Z,100999.77
2017-10-21T00:09:42.241Z,101002.97
2017-10-21T00:12:10.029Z,101001.41
2017-10-21T00:14:38.999Z,100998.95
2017-10-21T00:17:06.534Z,101001.09
2017-10-21T00:19:34.111Z,101000.45
2017-10-21T00:22:01.781Z,101006.73
2017-10-21T00:24:30.070Z,101003.81
2017-10-21T00:26:57.610Z,101003.37
2017-10-21T00:29:25.144Z,100998.34
2017-10-21T00:31:53.552Z,100991.36
2017-10-21T00:34:21.127Z,100992.92
2017-10-21T00:36:48.791Z,100998.95
2017-10-21T00:39:17.225Z,100991.50
2017-10-21T00:41:44.838Z,100997.92
2017-10-21T00:44:12.374Z,101001.83
2017-10-21T00:46:40.607Z,100998.45
2017-10-21T00:49:08.995Z,100995.30
2017-10-21T00:51:37.262Z,100999.95
2017-10-21T00:54:04.843Z,100998.34
2017-10-21T00:56:32.373Z,100997.84
2017-10-21T00:59:00.725Z,100989.97
2017-10-21T01:01:28.297Z,100994.04
2017-10-21T01:03:55.945Z,100989.81
2017-10-21T01:06:24.280Z,100993.32
2017-10-21T01:08:52.704Z,100993.16
2017-10-21T01:11:21.091Z,100997.08
2017-10-21T01:13:48.626Z,100994.28
2017-10-21T01:16:16.200Z,100991.92
2017-10-21T01:18:43.730Z,100992.64
2017-10-21T01:21:12.256Z,100986.38
2017-10-21T01:23:39.840Z,100993.86
2017-10-21T01:26:07.364Z,100987.02
2017-10-21T01:28:35.701Z,100993.44
2017-10-21T01:31:03.325Z,100988.72
2017-10-21T01:33:30.860Z,100991.59
2017-10-21T01:35:58.438Z,100993.02
2017-10-21T01:38:25.965Z,100991.16
2017-10-21T01:40:53.551Z,100989.27
2017-10-21T01:43:21.083Z,100986.77
2017-10-21T01:45:48.607Z,100989.98
2017-10-21T01:48:16.137Z,100982.72
2017-10-21T01:50:43.688Z,100992.94
2017-10-21T01:53:11.224Z,100996.16
2017-10-21T01:55:39.596Z,100989.44
2017-10-21T01:58:07.201Z,100979.13
2017-10-21T02:00:34.729Z,100984.28
2017-10-21T02:03:02.313Z,100985.75
2017-10-21T02:05:29.868Z,100989.61
2017-10-21T02:07:57.409Z,100978.70
2017-10-21T02:10:24.934Z,100983.91
2017-10-21T02:12:52.467Z,100979.96
2017-10-21T02:15:20.104Z,100970.25
2017-10-21T02:17:47.637Z,100980.01
2017-10-21T02:20:15.235Z,100973.50
2017-10-21T02:22:42.758Z,100977.02
2017-10-21T02:25:10.860Z,100974.09
2017-10-21T02:27:38.692Z,100974.64
2017-10-21T02:30:07.008Z,100976.58
2017-10-21T02:32:34.554Z,100976.58
2017-10-21T02:35:02.899Z,100972.02
2017-10-21T02:37:30.445Z,100976.45
2017-10-21T02:39:58.753Z,100972.93
2017-10-21T02:42:26.291Z,100976.48
2017-10-21T02:44:54.625Z,100982.81
2017-10-21T02:47:22.165Z,100985.91
2017-10-21T02:49:50.396Z,100979.88
2017-10-21T02:52:17.984Z,100985.75
2017-10-21T02:54:45.580Z,100984.83
2017-10-21T02:57:13.110Z,100988.98
2017-10-21T02:59:42.021Z,100991.59
2017-10-21T03:02:09.560Z,100992.95
2017-10-21T03:04:37.157Z,100996.92
2017-10-21T03:07:04.740Z,100991.94
2017-10-21T03:09:32.271Z,100998.63
2017-10-21T03:11:59.844Z,100994.53
2017-10-21T03:14:28.277Z,100988.27
2017-10-21T03:16:55.837Z,100985.00
2017-10-21T03:19:24.348Z,100992.06
2017-10-21T03:21:52.727Z,100986.13
2017-10-21T03:24:20.254Z,100987.52
2017-10-21T03:26:48.591Z,100991.30
2017-10-21T03:29:16.161Z,100992.63
2017-10-21T03:31:44.606Z,100988.47
2017-10-21T03:34:12.385Z,100992.13
2017-10-21T03:36:40.838Z,101000.95
2017-10-21T03:39:09.029Z,100992.52
2017-10-21T03:41:36.603Z,101003.20
2017-10-21T03:44:04.159Z,101006.35
2017-10-21T03:46:31.685Z,101000.80
2017-10-21T03:48:59.260Z,101007.94
2017-10-21T03:51:27.587Z,101005.89
2017-10-21T03:53:55.117Z,101005.55
2017-10-21T03:56:22.653Z,101002.78
2017-10-21T03:58:51.013Z,101008.74
2017-10-21T04:01:19.306Z,101005.38
2017-10-21T04:03:46.896Z,101008.06
2017-10-21T04:06:15.284Z,101012.53
2017-10-21T04:08:42.844Z,101012.60
2017-10-21T04:11:11.357Z,101008.88
2017-10-21T04:13:38.879Z,101015.63
2017-10-21T04:16:06.447Z,101006.08
2017-10-21T04:18:33.969Z,101006.42
2017-10-21T04:21:01.548Z,101009.26
2017-10-21T04:23:29.072Z,101006.31
2017-10-21T04:25:56.607Z,101010.08
2017-10-21T04:28:24.177Z,101005.01
2017-10-21T04:30:52.519Z,100996.37
2017-10-21T04:33:20.080Z,100993.98
2017-10-21T04:35:47.659Z,100998.87
2017-10-21T04:38:15.196Z,100993.73
2017-10-21T04:40:43.648Z,100996.57
2017-10-21T04:43:12.168Z,101006.87
2017-10-21T04:45:40.936Z,101007.09
2017-10-21T04:48:09.887Z,101007.15
2017-10-21T04:50:37.514Z,100996.72
2017-10-21T04:53:05.856Z,101000.08
2017-10-21T04:55:33.386Z,101000.70
2017-10-21T04:58:01.809Z,101005.53
2017-10-21T05:00:29.394Z,101002.59
2017-10-21T05:02:56.920Z,101004.83
2017-10-21T05:05:24.443Z,101007.72
2017-10-21T05:07:51.972Z,101007.95
2017-10-21T05:10:19.991Z,101011.22
2017-10-21T05:12:47.508Z,101016.36
2017-10-21T05:15:15.040Z,101017.25
2017-10-21T05:17:42.569Z,101020.38
2017-10-21T05:20:10.807Z,101022.27
2017-10-21T05:22:38.992Z,101024.42
2017-10-21T05:25:06.525Z,101029.16
2017-10-21T05:27:34.056Z,101024.58
2017-10-21T05:30:01.650Z,101027.28
2017-10-21T05:32:29.224Z,101034.56
2017-10-21T05:34:56.758Z,101027.74
2017-10-21T05:37:25.051Z,101031.41
2017-10-21T05:39:53.292Z,101032.88
2017-10-21T05:42:20.820Z,101032.54
2017-10-21T05:44:49.252Z,101030.30
2017-10-21T05:47:17.699Z,101034.49
2017-10-21T05:49:45.300Z,101028.62
2017-10-21T05:52:12.836Z,101042.23
2017-10-21T05:54:41.238Z,101043.90
2017-10-21T05:57:09.849Z,101039.98
2017-10-21T05:59:37.385Z,101044.54
2017-10-21T06:02:04.943Z,101039.42
2017-10-21T06:04:32.468Z,101035.11
2017-10-21T06:07:00.011Z,101043.34
2017-10-21T06:09:27.545Z,101042.25
2017-10-21T06:11:55.082Z,101035.19
2017-10-21T06:14:25.126Z,101039.86
2017-10-21T06:16:52.719Z,101044.05
2017-10-21T06:19:20.256Z,101038.33
2017-10-21T06:21:48.731Z,101046.25
2017-10-21T06:24:16.267Z,101035.83
2017-10-21T06:26:44.696Z,101044.34
2017-10-21T06:29:12.341Z,101045.04
2017-10-21T06:31:41.708Z,101047.67
2017-10-21T06:34:10.251Z,101053.23
2017-10-21T06:36:37.817Z,101046.81
2017-10-21T06:39:06.267Z,101057.17
2017-10-21T06:41:33.848Z,101062.14
2017-10-21T06:44:02.268Z,101061.64
2017-10-21T06:46:29.967Z,101065.70
2017-10-21T06:48:58.716Z,101059.61
2017-10-21T06:51:26.380Z,101061.94
2017-10-21T06:53:53.949Z,101062.70
2017-10-21T06:56:22.264Z,101061.94
2017-10-21T06:58:50.726Z,101059.27
2017-10-21T07:01:18.261Z,101065.48
2017-10-21T07:03:47.112Z,101066.05
2017-10-21T07:06:14.644Z,101069.92
2017-10-21T07:08:42.705Z,101067.44
2017-10-21T07:11:10.248Z,101072.45
2017-10-21T07:13:38.787Z,101065.31
2017-10-21T07:16:06.312Z,101068.06
2017-10-21T07:18:34.777Z,101062.94
2017-10-21T07:21:03.075Z,101070.91
2017-10-21T07:23:32.413Z,101076.97
2017-10-21T07:25:59.963Z,101078.03
2017-10-21T07:28:27.501Z,101076.45
2017-10-21T07:30:55.088Z,101081.23
2017-10-21T07:33:23.452Z,101083.67
2017-10-21T07:35:51.737Z,101084.50
2017-10-21T07:38:20.290Z,101083.88
2017-10-21T07:40:47.820Z,101082.27
2017-10-21T07:43:15.432Z,101090.20
2017-10-21T07:45:43.327Z,101092.09
2017-10-21T07:48:10.891Z,101094.53
2017-10-21T07:50:38.414Z,101088.83
2017-10-21T07:53:06.670Z,101094.13
2017-10-21T07:55:34.278Z,101083.75
2017-10-21T07:58:02.697Z,101091.16
2017-10-21T08:00:31.063Z,101083.67
2017-10-21T08:02:58.594Z,101085.23
2017-10-21T08:05:27.089Z,101079.08
2017-10-21T08:07:54.644Z,101081.41
2017-10-21T08:10:23.028Z,101082.97
2017-10-21T08:12:51.896Z,101085.34
2017-10-21T08:15:20.716Z,101081.17
2017-10-21T08:17:48.235Z,101084.75
2017-10-21T08:20:16.405Z,101083.08
2017-10-21T08:22:43.965Z,101089.05
2017-10-21T08:25:11.503Z,101092.28
2017-10-21T08:27:39.041Z,101090.55
2017-10-21T08:30:06.577Z,101091.56
2017-10-21T08:32:34.144Z,101096.89
2017-10-21T08:35:01.705Z,101101.84
2017-10-21T08:37:30.145Z,101099.09
2017-10-21T08:39:57.711Z,101102.66
2017-10-21T08:42:25.235Z,101102.02
2017-10-21T08:44:52.809Z,101103.33
2017-10-21T08:47:20.341Z,101100.88
2017-10-21T08:49:47.867Z,101106.55
2017-10-21T08:52:15.427Z,101110.86
2017-10-21T08:54:43.006Z,101108.30
2017-10-21T08:57:10.566Z,101114.81
2017-10-21T08:59:38.092Z,101117.67
2017-10-21T09:02:05.621Z,101103.55
2017-10-21T09:04:33.242Z,101099.09
2017-10-21T09:07:00.793Z,101103.75
2017-10-21T09:09:28.327Z,101099.98
2017-10-21T09:11:55.925Z,101105.76
2017-10-21T09:14:23.451Z,101101.77
2017-10-21T09:16:50.976Z,101102.87
2017-10-21T09:19:18.508Z,101110.79
2017-10-21T09:21:46.085Z,101108.74
2017-10-21T09:24:13.617Z,101109.98
2017-10-21T09:26:41.147Z,101111.49
2017-10-21T09:29:08.684Z,101106.55
2017-10-21T09:31:36.212Z,101107.00
2017-10-21T09:34:03.762Z,101108.92
2017-10-21T09:36:31.333Z,101109.34
2017-10-21T09:38:58.872Z,101110.48
2017-10-21T09:41:26.444Z,101114.05
2017-10-21T09:43:53.969Z,101103.11
2017-10-21T09:46:21.517Z,101111.34
2017-10-21T09:48:49.190Z,101109.38
2017-10-21T09:51:18.133Z,101113.26
2017-10-21T09:53:45.662Z,101118.36
2017-10-21T09:56:14.092Z,101118.97
2017-10-21T09:58:42.492Z,101112.42
2017-10-21T10:01:10.082Z,101107.97
2017-10-21T10:03:38.519Z,101105.77
2017-10-21T10:06:06.141Z,101106.08
2017-10-21T10:08:34.575Z,101102.48
2017-10-21T10:11:02.193Z,101106.84
2017-10-21T10:13:30.572Z,101102.17
2017-10-21T10:15:58.150Z,101113.58
2017-10-21T10:18:25.809Z,101112.00
2017-10-21T10:20:53.929Z,101116.48
2017-10-21T10:23:22.417Z,101106.22
2017-10-21T10:25:50.935Z,101104.37
2017-10-21T10:28:19.308Z,101094.99
2017-10-21T10:30:47.853Z,101102.14
2017-10-21T10:33:15.465Z,101095.52
2017-10-21T10:35:43.013Z,101089.45
2017-10-21T10:38:11.543Z,101085.76
2017-10-21T10:40:39.884Z,101089.56
2017-10-21T10:43:07.436Z,101090.44
2017-10-21T10:45:35.785Z,101084.10
2017-10-21T10:48:03.384Z,101079.17
2017-10-21T10:50:30.967Z,101076.22
2017-10-21T10:52:58.500Z,101073.11
2017-10-21T10:55:26.945Z,101071.70
2017-10-21T10:57:54.478Z,101075.19
2017-10-21T11:00:22.102Z,101065.55
2017-10-21T11:02:49.684Z,101068.16
2017-10-21T11:05:17.998Z,101070.73
2017-10-21T11:07:46.297Z,101067.20
2017-10-21T11:10:13.886Z,101072.67
2017-10-21T11:12:42.117Z,101073.80
2017-10-21T11:15:10.526Z,101067.23
2017-10-21T11:17:38.075Z,101064.33
2017-10-21T11:20:05.616Z,101062.56
2017-10-21T11:22:34.061Z,101059.47
2017-10-21T11:25:01.598Z,101050.78
2017-10-21T11:27:29.188Z,101044.86
2017-10-21T11:29:56.728Z,101043.77
2017-10-21T11:32:24.309Z,101038.72
2017-10-21T11:34:51.940Z,101047.68
2017-10-21T11:37:19.475Z,101045.80
2017-10-21T11:39:48.416Z,101052.85
2017-10-21T11:42:17.866Z,101048.45
2017-10-21T11:44:45.427Z,101050.00
2017-10-21T11:47:12.959Z,101048.09
2017-10-21T11:49:40.575Z,101050.66
2017-10-21T11:52:08.959Z,101044.33
2017-10-21T11:54:37.546Z,101051.08
2017-10-21T11:57:05.088Z,101046.52
2017-10-21T11:59:33.571Z,101041.98
2017-10-21T12:02:02.129Z,101043.89
2017-10-21T12:04:30.587Z,101043.48
2017-10-21T12:06:58.894Z,101039.58
2017-10-21T12:09:26.452Z,101049.77
2017-10-21T12:11:53.979Z,101046.66
2017-10-21T12:14:21.579Z,101052.67
2017-10-21T12:16:49.168Z,101052.22
2017-10-21T12:19:16.695Z,101053.91
2017-10-21T12:21:44.292Z,101040.00
2017-10-21T12:24:12.630Z,101039.41
2017-10-21T12:26:40.985Z,101040.36
2017-10-21T12:29:08.532Z,101039.00
2017-10-21T12:31:36.059Z,101025.06
2017-10-21T12:34:03.596Z,101020.08
2017-10-21T12:36:31.124Z,101025.53
2017-10-21T12:38:58.696Z,101023.16
2017-10-21T12:41:26.229Z,101017.38
2017-10-21T12:43:53.761Z,101014.53
2017-10-21T12:46:21.288Z,101026.38
2017-10-21T12:48:48.889Z,101017.72
2017-10-21T12:51:16.420Z,101017.98
2017-10-21T12:53:44.938Z,101012.52
2017-10-21T12:56:12.491Z,101016.72
2017-10-21T12:58:40.065Z,101014.41
2017-10-21T13:01:07.599Z,101013.16
2017-10-21T13:03:35.937Z,101019.63
2017-10-21T13:06:04.380Z,101015.72
2017-10-21T13:08:32.822Z,101019.08
2017-10-21T13:11:01.226Z,101015.45
2017-10-21T13:13:28.759Z,101012.11
2017-10-21T13:15:56.285Z,101004.16
2017-10-21T13:18:23.816Z,101002.69
2017-10-21T13:20:51.397Z,101001.47
2017-10-21T13:23:19.031Z,100998.76
2017-10-21T13:25:46.916Z,101004.75
2017-10-21T13:28:14.464Z,101004.62
2017-10-21T13:30:41.998Z,101003.29
2017-10-21T13:33:10.375Z,101001.09
2017-10-21T13:35:37.932Z,100999.21
2017-10-21T13:38:05.621Z,101001.58
2017-10-21T13:40:33.849Z,101000.33
2017-10-21T13:43:01.384Z,101000.03
2017-10-21T13:45:28.914Z,100998.84
2017-10-21T13:47:56.443Z,100991.48
2017-10-21T13:50:24.794Z,100988.80
2017-10-21T13:52:53.132Z,100979.27
2017-10-21T13:55:21.475Z,100974.42
2017-10-21T13:57:48.995Z,100968.14
2017-10-21T14:00:18.637Z,100969.91
2017-10-21T14:02:46.197Z,100967.81
2017-10-21T14:05:13.781Z,100966.34
2017-10-21T14:07:41.500Z,100967.66
2017-10-21T14:10:09.141Z,100968.84
2017-10-21T14:12:37.582Z,100964.95
2017-10-21T14:15:06.016Z,100976.16
2017-10-21T14:17:33.576Z,100978.14
2017-10-21T14:20:01.104Z,100980.05
2017-10-21T14:22:28.673Z,100977.36
2017-10-21T14:24:56.208Z,100981.34
2017-10-21T14:27:24.513Z,100985.11
2017-10-21T14:29:52.175Z,100983.03
2017-10-21T14:32:19.723Z,100976.72
2017-10-21T14:34:47.251Z,100986.05
2017-10-21T14:37:14.787Z,100986.63
2017-10-21T14:39:43.215Z,100999.69
2017-10-21T14:42:11.719Z,101000.28
2017-10-21T14:44:40.175Z,101001.79
2017-10-21T14:47:08.427Z,101001.51
2017-10-21T14:49:35.957Z,101000.33
2017-10-21T14:52:03.526Z,101002.87
2017-10-21T14:54:31.055Z,101008.92
2017-10-21T14:56:58.591Z,101009.81
2017-10-21T14:59:26.161Z,101020.08
2017-10-21T15:01:53.688Z,101019.24
2017-10-21T15:04:21.267Z,101022.05
2017-10-21T15:06:48.805Z,101023.19
2017-10-21T15:09:16.398Z,101024.59
2017-10-21T15:11:43.933Z,101027.63
2017-10-21T15:14:12.208Z,101029.41
2017-10-21T15:16:40.716Z,101034.00
2017-10-21T15:19:08.406Z,101023.80
2017-10-21T15:21:35.965Z,101026.15
2017-10-21T15:24:04.411Z,101028.89
2017-10-21T15:26:31.944Z,101027.95
2017-10-21T15:28:59.476Z,101019.70
2017-10-21T15:31:27.051Z,101020.95
2017-10-21T15:33:54.588Z,101022.67
2017-10-21T15:36:22.143Z,101024.83
2017-10-21T15:38:49.673Z,101021.59
2017-10-21T15:41:17.263Z,101024.91
2017-10-21T15:43:44.790Z,101012.03
2017-10-21T15:46:12.316Z,101004.94
2017-10-21T15:48:40.673Z,101008.83
2017-10-21T15:51:09.048Z,101007.52
2017-10-21T15:53:36.574Z,100998.50
2017-10-21T15:56:04.161Z,101006.31
2017-10-21T15:58:31.696Z,100994.22
2017-10-21T16:00:59.528Z,100997.50
2017-10-21T16:03:27.352Z,100998.76
2017-10-21T16:05:55.086Z,100995.77
2017-10-21T16:08:23.395Z,100994.04
2017-10-21T16:10:52.185Z,100992.84
2017-10-21T16:13:19.965Z,100993.14
2017-10-21T16:15:47.523Z,100996.55
2017-10-21T16:18:15.066Z,100994.77
2017-10-21T16:20:42.604Z,100991.02
2017-10-21T16:23:11.122Z,100985.38
2017-10-21T16:25:38.685Z,100989.45
2017-10-21T16:28:06.209Z,100989.91
2017-10-21T16:30:33.869Z,100995.28
2017-10-21T16:33:04.187Z,100991.16
2017-10-21T16:35:31.795Z,100991.31
2017-10-21T16:37:59.348Z,100989.27
2017-10-21T16:40:26.877Z,100987.00
2017-10-21T16:42:55.388Z,100986.88
2017-10-21T16:45:25.519Z,100994.52
2017-10-21T16:47:53.205Z,100985.75
2017-10-21T16:50:20.787Z,100988.98
2017-10-21T16:52:48.398Z,101003.52
2017-10-21T16:55:15.986Z,101001.27
2017-10-21T16:57:43.519Z,100998.50
2017-10-21T17:00:11.483Z,101017.23
2017-10-21T17:02:39.017Z,101006.91
2017-10-21T17:05:06.618Z,101009.98
2017-10-21T17:07:34.154Z,101006.57
2017-10-21T17:10:01.684Z,101001.84
2017-10-21T17:12:29.259Z,100999.27
2017-10-21T17:14:56.794Z,100993.28
2017-10-21T17:17:25.252Z,100990.53
2017-10-21T17:19:54.094Z,100992.66
2017-10-21T17:22:21.646Z,100993.53
2017-10-21T17:24:49.185Z,100998.61
2017-10-21T17:27:16.740Z,100991.72
2017-10-21T17:29:44.281Z,100991.70
2017-10-21T17:32:11.877Z,100981.97
2017-10-21T17:34:41.325Z,100979.81
2017-10-21T17:37:08.901Z,100978.36
2017-10-21T17:39:36.443Z,100978.95
2017-10-21T17:42:03.983Z,100982.13
2017-10-21T17:44:32.620Z,100981.41
2017-10-21T17:47:00.229Z,100982.59
2017-10-21T17:49:27.800Z,100984.83
2017-10-21T17:51:55.358Z,100984.11
2017-10-21T17:54:23.761Z,100975.03
2017-10-21T17:56:53.189Z,100965.56
2017-10-21T17:59:20.737Z,100962.63
2017-10-21T18:01:49.203Z,100974.30
2017-10-21T18:04:19.012Z,100980.39
2017-10-21T18:06:46.549Z,100974.67
2017-10-21T18:09:14.098Z,100970.28
2017-10-21T18:11:41.638Z,100965.36
2017-10-21T18:14:11.135Z,100968.92
2017-10-21T18:16:39.645Z,100970.13
2017-10-21T18:19:07.188Z,100968.75
2017-10-21T18:21:34.721Z,100964.47
2017-10-21T18:24:02.258Z,100965.56
2017-10-21T18:26:29.804Z,100966.97
2017-10-21T18:28:58.400Z,100962.16
2017-10-21T18:31:25.984Z,100965.67
2017-10-21T18:33:54.957Z,100965.52
2017-10-21T18:36:23.302Z,100955.97
2017-10-21T18:38:51.719Z,100953.38
2017-10-21T18:41:20.144Z,100960.05
2017-10-21T18:43:47.693Z,100959.67
2017-10-21T18:46:15.233Z,100953.59
2017-10-21T18:48:42.806Z,100954.66
2017-10-21T18:51:10.349Z,100955.51
2017-10-21T18:53:37.933Z,100948.35
2017-10-21T18:56:05.472Z,100949.89
2017-10-21T18:58:33.009Z,100959.08
2017-10-21T19:01:01.581Z,100966.98
2017-10-21T19:03:29.122Z,100958.83
2017-10-21T19:05:56.658Z,100961.71
2017-10-21T19:08:24.201Z,100957.88
2017-10-21T19:10:51.738Z,100959.45
2017-10-21T19:13:19.976Z,100955.02
2017-10-21T19:15:47.573Z,100950.25
2017-10-21T19:18:15.133Z,100961.45
2017-10-21T19:20:45.773Z,100959.67
2017-10-21T19:23:14.393Z,100955.55
2017-10-21T19:25:42.344Z,100946.16
2017-10-21T19:28:09.958Z,100942.97
2017-10-21T19:30:37.516Z,100938.92
2017-10-21T19:33:06.361Z,100941.13
2017-10-21T19:35:40.066Z,100955.28
2017-10-21T19:38:08.961Z,100949.26
2017-10-21T19:40:36.584Z,100955.98
2017-10-21T19:43:04.158Z,100945.68
2017-10-21T19:45:32.608Z,100947.77
2017-10-21T19:48:01.034Z,100944.06
2017-10-21T19:50:28.618Z,100932.48
2017-10-21T19:52:56.206Z,100918.83
2017-10-21T19:55:23.832Z,100905.70
2017-10-21T19:57:52.439Z,100901.05
2017-10-21T20:00:20.050Z,100903.38
2017-10-21T20:02:47.596Z,100900.16
2017-10-21T20:05:15.138Z,100905.23
2017-10-21T20:07:42.747Z,100910.23
2017-10-21T20:10:10.333Z,100916.25
2017-10-21T20:12:37.866Z,100913.83
2017-10-21T20:15:05.412Z,100914.83
2017-10-21T20:17:33.006Z,100907.31
2017-10-21T20:20:00.954Z,100898.37
2017-10-21T20:22:28.531Z,100891.70
2017-10-21T20:24:56.075Z,100869.58
2017-10-21T20:27:23.652Z,100864.52
2017-10-21T20:29:51.720Z,100885.27
2017-10-21T20:32:19.311Z,100882.52
2017-10-21T20:34:47.752Z,100885.27
2017-10-21T20:37:15.305Z,100872.88
2017-10-21T20:39:42.867Z,100857.67
2017-10-21T20:42:10.396Z,100858.60
2017-10-21T20:44:38.006Z,100859.49
2017-10-21T20:47:05.546Z,100860.70
2017-10-21T20:49:33.302Z,100866.84
2017-10-21T20:52:07.949Z,100870.53
2017-10-21T20:54:36.182Z,100873.22
2017-10-21T20:57:03.941Z,100874.28
2017-10-21T20:59:31.473Z,100892.94
2017-10-21T21:01:59.020Z,100894.17
2017-10-21T21:04:26.548Z,100894.77
2017-10-21T21:06:55.094Z,100897.22
2017-10-21T21:09:23.465Z,100894.80
2017-10-21T21:11:51.571Z,100891.09
2017-10-21T21:14:19.109Z,100888.41
2017-10-21T21:16:46.737Z,100883.30
2017-10-21T21:19:14.264Z,100880.84
2017-10-21T21:21:42.623Z,100886.80
2017-10-21T21:24:10.163Z,100886.51
2017-10-21T21:26:37.796Z,100879.66
2017-10-21T21:29:05.459Z,100867.33
2017-10-21T21:31:33.019Z,100870.80
2017-10-21T21:34:00.720Z,100873.02
2017-10-21T21:36:28.355Z,100877.11
2017-10-21T21:38:55.883Z,100875.61
2017-10-21T21:41:23.430Z,100871.26
2017-10-21T21:43:52.525Z,100872.46
2017-10-21T21:46:20.897Z,100877.22
2017-10-21T21:48:50.768Z,100881.51
2017-10-21T21:51:18.304Z,100877.09
2017-10-21T21:53:47.702Z,100873.34
2017-10-21T21:56:16.297Z,100879.29
2017-10-21T21:58:43.833Z,100883.94
2017-10-21T22:01:12.485Z,100880.98
2017-10-21T22:03:40.779Z,100872.31
2017-10-21T22:06:09.109Z,100873.77
2017-10-21T22:08:36.642Z,100873.22
2017-10-21T22:11:04.178Z,100876.73
2017-10-21T22:13:31.777Z,100871.14
2017-10-21T22:15:59.328Z,100867.18
2017-10-21T22:18:26.908Z,100860.87
2017-10-21T22:20:54.565Z,100859.45
2017-10-21T22:23:22.101Z,100867.13
2017-10-21T22:25:49.661Z,100863.52
2017-10-21T22:28:17.525Z,100863.44
2017-10-21T22:30:45.069Z,100862.66
2017-10-21T22:33:12.632Z,100866.84
2017-10-21T22:35:41.090Z,100870.87
2017-10-21T22:38:08.644Z,100860.17
2017-10-21T22:40:36.224Z,100857.72
2017-10-21T22:43:03.773Z,100859.57
2017-10-21T22:45:31.384Z,100844.95
2017-10-21T22:47:58.920Z,100836.49
2017-10-21T22:50:26.513Z,100833.05
2017-10-21T22:52:54.093Z,100836.38
2017-10-21T22:55:21.644Z,100833.17
2017-10-21T22:57:49.177Z,100845.08
2017-10-21T23:00:19.025Z,100846.80
2017-10-21T23:02:46.672Z,100842.66
2017-10-21T23:05:14.842Z,100843.66
2017-10-21T23:07:42.514Z,100830.61
2017-10-21T23:10:10.968Z,100834.75
2017-10-21T23:12:39.281Z,100836.20
2017-10-21T23:15:07.728Z,100831.48
2017-10-21T23:17:36.138Z,100833.30
2017-10-21T23:20:04.704Z,100827.45
2017-10-21T23:22:32.285Z,100836.36
2017-10-21T23:25:00.600Z,100823.91
2017-10-21T23:27:28.222Z,100828.88
2017-10-21T23:29:56.701Z,100829.81
2017-10-21T23:32:24.243Z,100822.52
2017-10-21T23:34:51.832Z,100827.94
2017-10-21T23:37:19.365Z,100825.39
2017-10-21T23:39:47.042Z,100830.06
2017-10-21T23:42:15.260Z,100830.75
2017-10-21T23:44:42.877Z,100826.52
2017-10-21T23:47:10.444Z,100823.34
2017-10-21T23:49:37.972Z,100816.42
2017-10-21T23:52:05.579Z,100810.30
2017-10-21T23:54:33.117Z,100808.59
2017-10-21T23:57:01.501Z,100806.95
2017-10-21T23:59:29.980Z,100811.54
